createdAt,value
2019-04-28T00:05:12.694Z,6.15
2019-04-28T00:07:38.530Z,6.07
2019-04-28T00:10:24.249Z,6.20
2019-04-28T00:12:51.109Z,6.20
2019-04-28T00:15:17.930Z,6.19
2019-04-28T00:17:43.762Z,6.21
2019-04-28T00:23:17.050Z,6.09
2019-04-28T00:26:02.779Z,6.13
2019-04-28T00:28:48.631Z,6.04
2019-04-28T00:31:14.614Z,6.04
2019-04-28T00:33:41.038Z,6.11
2019-04-28T00:36:08.216Z,6.21
2019-04-28T00:38:34.050Z,6.26
2019-04-28T00:40:59.894Z,6.28
2019-04-28T00:43:25.754Z,6.19
2019-04-28T00:45:51.677Z,6.22
2019-04-28T00:48:17.543Z,6.05
2019-04-28T00:50:43.765Z,5.99
2019-04-28T00:53:11.677Z,6.02
2019-04-28T00:55:38.887Z,6.01
2019-04-28T00:58:04.726Z,6.00
2019-04-28T01:03:04.289Z,5.98
2019-04-28T01:05:31.196Z,6.00
2019-04-28T01:07:58.005Z,6.00
2019-04-28T01:12:57.866Z,6.01
2019-04-28T01:18:21.795Z,6.04
2019-04-28T01:20:49.497Z,6.09
2019-04-28T01:23:15.519Z,6.10
2019-04-28T01:25:41.358Z,6.07
2019-04-28T01:28:07.183Z,6.07
2019-04-28T01:30:52.923Z,6.11
2019-04-28T01:33:40.538Z,6.07
2019-04-28T01:36:06.514Z,5.98
2019-04-28T01:38:32.334Z,5.98
2019-04-28T01:40:59.758Z,5.98
2019-04-28T01:43:25.928Z,5.87
2019-04-28T01:45:51.767Z,5.92
2019-04-28T01:48:17.637Z,5.88
2019-04-28T01:50:43.510Z,5.88
2019-04-28T01:53:09.755Z,5.91
2019-04-28T01:55:37.111Z,5.88
2019-04-28T01:58:03.047Z,5.90
2019-04-28T02:00:29.680Z,5.97
2019-04-28T02:02:56.770Z,6.01
2019-04-28T02:05:22.720Z,5.95
2019-04-28T02:07:50.467Z,5.82
2019-04-28T02:11:00.002Z,5.79
2019-04-28T02:13:25.705Z,5.64
2019-04-28T02:15:51.555Z,5.64
2019-04-28T02:18:17.393Z,5.69
2019-04-28T02:23:37.020Z,5.63
2019-04-28T02:26:03.056Z,5.63
2019-04-28T02:28:29.625Z,5.61
2019-04-28T02:31:16.528Z,5.66
2019-04-28T02:33:42.377Z,5.66
2019-04-28T02:36:09.730Z,5.62
2019-04-28T02:38:35.976Z,5.61
2019-04-28T02:41:01.828Z,5.69
2019-04-28T02:43:27.669Z,5.75
2019-04-28T02:46:35.156Z,5.68
2019-04-28T02:52:10.741Z,5.68
2019-04-28T02:54:56.794Z,5.70
2019-04-28T02:57:22.639Z,5.70
2019-04-28T02:59:50.839Z,5.69
2019-04-28T03:02:36.207Z,5.32
2019-04-28T03:05:43.694Z,5.32
2019-04-28T03:08:11.120Z,5.28
2019-04-28T03:10:37.382Z,5.27
2019-04-28T03:13:03.318Z,5.23
2019-04-28T03:15:30.275Z,5.17
2019-04-28T03:17:56.985Z,5.18
2019-04-28T03:20:22.832Z,5.16
2019-04-28T03:22:51.039Z,5.18
2019-04-28T03:25:36.383Z,5.21
2019-04-28T03:28:22.406Z,5.26
2019-04-28T03:31:40.538Z,5.26
2019-04-28T03:33:41.942Z,5.30
2019-04-28T03:36:08.732Z,5.33
2019-04-28T03:38:31.574Z,5.32
2019-04-28T03:40:57.414Z,5.33
2019-04-28T03:43:23.426Z,5.38
2019-04-28T03:48:36.669Z,5.23
2019-04-28T03:51:02.725Z,5.14
2019-04-28T03:53:31.037Z,5.14
2019-04-28T03:55:56.338Z,5.11
2019-04-28T03:58:24.307Z,5.13
2019-04-28T04:00:50.725Z,5.13
2019-04-28T04:03:20.642Z,5.08
2019-04-28T04:05:45.433Z,5.05
2019-04-28T04:08:31.271Z,5.03
2019-04-28T04:11:16.963Z,5.03
2019-04-28T04:14:02.666Z,5.04
2019-04-28T04:16:50.246Z,4.97
2019-04-28T04:22:03.494Z,4.93
2019-04-28T04:24:30.656Z,4.92
2019-04-28T04:26:57.085Z,4.89
2019-04-28T04:29:22.923Z,4.88
2019-04-28T04:31:51.065Z,5.01
2019-04-28T04:34:16.537Z,4.98
2019-04-28T04:36:42.384Z,5.04
2019-04-28T04:39:10.743Z,4.98
2019-04-28T04:41:35.963Z,4.93
2019-04-28T04:44:01.825Z,4.92
2019-04-28T04:49:34.895Z,4.92
2019-04-28T04:52:00.772Z,4.93
2019-04-28T04:54:26.621Z,4.88
2019-04-28T04:56:52.457Z,4.85
2019-04-28T04:59:20.231Z,4.84
2019-04-28T05:07:10.889Z,4.71
2019-04-28T05:09:39.510Z,4.69
2019-04-28T05:12:06.029Z,4.67
2019-04-28T05:14:31.879Z,4.62
2019-04-28T05:16:57.699Z,4.61
2019-04-28T05:19:23.549Z,4.59
2019-04-28T05:21:49.830Z,4.62
2019-04-28T05:24:37.025Z,4.70
2019-04-28T05:29:51.353Z,4.63
2019-04-28T05:32:17.968Z,4.67
2019-04-28T05:34:46.630Z,4.66
2019-04-28T05:37:11.546Z,4.65
2019-04-28T05:39:38.601Z,4.58
2019-04-28T05:42:05.241Z,4.65
2019-04-28T05:44:32.067Z,4.59
2019-04-28T05:46:59.543Z,4.57
2019-04-28T05:49:46.442Z,4.44
2019-04-28T05:52:32.278Z,4.41
2019-04-28T05:57:55.149Z,4.38
2019-04-28T06:05:31.962Z,4.14
2019-04-28T06:08:20.209Z,3.98
2019-04-28T06:10:46.170Z,3.89
2019-04-28T06:13:12.013Z,3.90
2019-04-28T06:15:39.567Z,3.82
2019-04-28T06:18:05.618Z,3.86
2019-04-28T06:20:31.455Z,3.88
2019-04-28T06:22:57.305Z,3.78
2019-04-28T06:25:23.169Z,3.63
2019-04-28T06:27:49.033Z,3.59
2019-04-28T06:30:14.980Z,3.58
2019-04-28T06:32:40.938Z,3.48
2019-04-28T06:35:06.789Z,3.51
2019-04-28T06:37:32.647Z,3.52
2019-04-28T06:39:58.496Z,3.55
2019-04-28T06:42:24.346Z,3.64
2019-04-28T06:44:50.177Z,3.65
2019-04-28T06:47:16.897Z,3.64
2019-04-28T06:49:43.763Z,3.66
2019-04-28T06:52:09.604Z,3.65
2019-04-28T06:54:35.460Z,3.74
2019-04-28T06:57:01.296Z,3.86
2019-04-28T06:59:27.146Z,3.93
2019-04-28T07:01:52.993Z,4.01
2019-04-28T07:04:18.829Z,4.15
2019-04-28T07:06:44.654Z,4.12
2019-04-28T07:09:10.527Z,4.16
2019-04-28T07:11:36.361Z,4.12
2019-04-28T07:14:02.319Z,4.19
2019-04-28T07:16:28.151Z,4.35
2019-04-28T07:18:53.982Z,4.32
2019-04-28T07:21:39.725Z,4.31
2019-04-28T07:24:05.654Z,4.37
2019-04-28T07:26:31.596Z,4.40
2019-04-28T07:28:57.432Z,4.39
2019-04-28T07:33:56.885Z,4.55
2019-04-28T07:36:22.838Z,4.78
2019-04-28T07:38:48.668Z,4.70
2019-04-28T07:41:14.534Z,4.68
2019-04-28T07:43:40.368Z,4.62
2019-04-28T07:46:06.219Z,4.87
2019-04-28T07:48:52.460Z,5.11
2019-04-28T07:56:29.222Z,5.77
2019-04-28T07:58:55.090Z,5.77
2019-04-28T08:01:21.033Z,6.04
2019-04-28T08:03:49.617Z,6.16
2019-04-28T08:06:14.652Z,6.42
2019-04-28T08:08:40.506Z,6.59
2019-04-28T08:11:06.354Z,6.35
2019-04-28T08:13:32.205Z,6.47
2019-04-28T08:15:58.048Z,6.69
2019-04-28T08:18:23.893Z,6.68
2019-04-28T08:20:49.942Z,7.18
2019-04-28T08:23:15.784Z,7.30
2019-04-28T08:25:41.632Z,7.19
2019-04-28T08:28:07.481Z,7.06
2019-04-28T08:34:01.846Z,6.86
2019-04-28T08:36:18.331Z,6.86
2019-04-28T08:38:44.271Z,6.91
2019-04-28T08:41:10.130Z,6.48
2019-04-28T08:43:36.099Z,6.79
2019-04-28T08:46:01.933Z,6.68
2019-04-28T08:48:27.767Z,6.55
2019-04-28T08:50:53.692Z,6.56
2019-04-28T08:53:19.574Z,6.44
2019-04-28T08:55:45.391Z,6.96
2019-04-28T08:58:11.274Z,6.97
2019-04-28T09:00:37.112Z,6.93
2019-04-28T09:03:03.648Z,7.13
2019-04-28T09:05:49.414Z,7.47
2019-04-28T09:08:15.259Z,7.47
2019-04-28T09:10:41.529Z,7.34
2019-04-28T09:13:07.550Z,7.23
2019-04-28T09:15:33.436Z,7.03
2019-04-28T09:17:59.278Z,7.20
2019-04-28T09:20:25.147Z,7.15
2019-04-28T09:22:50.976Z,7.28
2019-04-28T09:25:16.857Z,7.09
2019-04-28T09:27:42.704Z,7.38
2019-04-28T09:30:08.744Z,7.28
2019-04-28T09:32:34.565Z,7.41
2019-04-28T09:35:00.427Z,7.57
2019-04-28T09:37:26.551Z,7.19
2019-04-28T09:40:12.328Z,7.20
2019-04-28T09:45:45.411Z,6.98
2019-04-28T09:48:31.133Z,6.67
2019-04-28T09:50:57.016Z,6.67
2019-04-28T09:53:22.864Z,7.00
2019-04-28T09:55:48.716Z,6.98
2019-04-28T09:58:14.561Z,6.67
2019-04-28T10:00:40.417Z,6.76
2019-04-28T10:03:06.374Z,6.81
2019-04-28T10:05:32.252Z,7.18
2019-04-28T10:07:58.082Z,7.20
2019-04-28T10:10:23.953Z,7.46
2019-04-28T10:12:49.911Z,7.59
2019-04-28T10:15:15.899Z,7.63
2019-04-28T10:17:41.773Z,7.83
2019-04-28T10:20:49.256Z,8.04
2019-04-28T10:23:15.085Z,7.96
2019-04-28T10:25:41.035Z,8.16
2019-04-28T10:28:06.881Z,8.21
2019-04-28T10:30:32.843Z,7.84
2019-04-28T10:32:58.675Z,8.12
2019-04-28T10:35:24.643Z,7.73
2019-04-28T10:37:50.470Z,8.26
2019-04-28T10:40:57.982Z,8.52
2019-04-28T10:43:23.895Z,8.52
2019-04-28T10:46:31.374Z,8.70
2019-04-28T10:48:57.354Z,8.64
2019-04-28T10:51:23.217Z,9.18
2019-04-28T10:53:49.057Z,9.16
2019-04-28T10:56:14.898Z,9.11
2019-04-28T11:01:14.420Z,8.54
2019-04-28T11:06:34.162Z,8.57
2019-04-28T11:09:39.762Z,8.30
2019-04-28T11:12:45.381Z,8.29
2019-04-28T11:15:52.872Z,8.29
2019-04-28T11:20:52.510Z,8.21
2019-04-28T11:23:18.459Z,7.95
2019-04-28T11:25:44.397Z,8.07
2019-04-28T11:28:10.392Z,8.13
2019-04-28T11:30:56.105Z,7.89
2019-04-28T11:33:44.274Z,7.74
2019-04-28T11:38:59.377Z,7.62
2019-04-28T11:41:25.241Z,7.55
2019-04-28T11:43:51.111Z,7.83
2019-04-28T11:49:25.263Z,7.79
2019-04-28T11:52:05.214Z,7.95
2019-04-28T11:54:31.100Z,7.95
2019-04-28T11:56:56.969Z,7.88
2019-04-28T11:59:22.819Z,7.97
2019-04-28T12:01:48.650Z,7.84
2019-04-28T12:07:21.749Z,8.18
2019-04-28T12:10:07.470Z,8.18
2019-04-28T12:15:40.566Z,8.27
2019-04-28T12:18:26.299Z,8.43
2019-04-28T12:20:52.264Z,8.36
2019-04-28T12:23:18.104Z,8.82
2019-04-28T12:25:43.939Z,9.04
2019-04-28T12:28:09.793Z,9.17
2019-04-28T12:30:35.638Z,8.84
2019-04-28T12:33:01.479Z,8.86
2019-04-28T12:35:27.344Z,9.19
2019-04-28T12:37:53.183Z,9.23
2019-04-28T12:40:19.024Z,9.14
2019-04-28T12:42:44.888Z,9.16
2019-04-28T12:45:10.832Z,9.09
2019-04-28T12:47:36.819Z,9.40
2019-04-28T12:50:42.400Z,9.26
2019-04-28T12:53:23.505Z,9.90
2019-04-28T12:56:03.111Z,10.06
2019-04-28T12:58:29.001Z,10.06
2019-04-28T13:01:34.583Z,9.96
2019-04-28T13:04:20.394Z,9.68
2019-04-28T13:07:06.117Z,9.66
2019-04-28T13:09:31.972Z,9.62
2019-04-28T13:12:17.678Z,9.85
2019-04-28T13:15:04.109Z,11.78
2019-04-28T13:17:49.825Z,11.77
2019-04-28T13:20:15.768Z,12.00
2019-04-28T13:22:41.657Z,12.00
2019-04-28T13:25:07.632Z,10.98
2019-04-28T13:27:33.487Z,10.49
2019-04-28T13:29:59.463Z,10.56
2019-04-28T13:32:45.195Z,11.60
2019-04-28T13:35:11.191Z,11.60
2019-04-28T13:37:37.065Z,12.09
2019-04-28T13:40:44.532Z,12.25
2019-04-28T13:43:30.272Z,13.50
2019-04-28T13:45:56.204Z,13.50
2019-04-28T13:48:22.010Z,13.19
2019-04-28T13:50:49.023Z,11.96
2019-04-28T13:53:15.630Z,11.48
2019-04-28T13:56:01.365Z,12.42
2019-04-28T14:04:48.319Z,12.24
2019-04-28T14:07:14.220Z,12.69
2019-04-28T14:09:40.060Z,11.80
2019-04-28T14:12:06.088Z,12.17
2019-04-28T14:14:51.841Z,12.75
2019-04-28T14:17:17.769Z,12.75
2019-04-28T14:19:43.636Z,12.50
2019-04-28T14:22:09.572Z,12.06
2019-04-28T14:24:35.486Z,11.95
2019-04-28T14:27:01.281Z,11.55
2019-04-28T14:29:27.145Z,11.08
2019-04-28T14:31:53.024Z,11.03
2019-04-28T14:34:18.839Z,11.07
2019-04-28T14:36:44.653Z,10.86
2019-04-28T14:39:10.728Z,10.62
2019-04-28T14:41:56.452Z,10.41
2019-04-28T14:44:22.349Z,10.41
2019-04-28T14:46:48.157Z,10.85
2019-04-28T14:49:14.002Z,10.57
2019-04-28T14:51:39.869Z,10.63
2019-04-28T14:54:05.731Z,10.73
2019-04-28T14:56:31.628Z,10.79
2019-04-28T14:58:57.522Z,10.60
2019-04-28T15:01:43.254Z,10.54
2019-04-28T15:04:48.890Z,10.90
2019-04-28T15:07:34.654Z,10.90
2019-04-28T15:10:40.286Z,12.51
2019-04-28T15:13:26.421Z,12.41
2019-04-28T15:15:52.271Z,12.41
2019-04-28T15:18:18.174Z,13.27
2019-04-28T15:20:44.204Z,13.90
2019-04-28T15:23:10.020Z,12.94
2019-04-28T15:25:35.886Z,13.49
2019-04-28T15:28:01.713Z,13.44
2019-04-28T15:30:27.525Z,13.33
2019-04-28T15:32:53.377Z,14.53
2019-04-28T15:35:19.208Z,13.90
2019-04-28T15:37:45.071Z,13.88
2019-04-28T15:40:52.567Z,14.82
2019-04-28T15:43:18.414Z,13.83
2019-04-28T15:45:44.284Z,13.38
2019-04-28T15:48:10.132Z,12.59
2019-04-28T15:50:35.970Z,12.29
2019-04-28T15:53:13.631Z,12.86
2019-04-28T15:58:38.358Z,12.07
2019-04-28T16:01:04.456Z,12.30
2019-04-28T16:03:30.395Z,11.78
2019-04-28T16:05:56.223Z,11.93
2019-04-28T16:08:22.085Z,11.82
2019-04-28T16:10:47.921Z,11.50
2019-04-28T16:13:13.803Z,11.52
2019-04-28T16:15:39.667Z,11.15
2019-04-28T16:18:05.544Z,10.87
2019-04-28T16:20:31.387Z,10.94
2019-04-28T16:22:57.249Z,10.80
2019-04-28T16:25:23.093Z,10.81
2019-04-28T16:27:48.938Z,10.75
2019-04-28T16:30:14.920Z,10.72
2019-04-28T16:32:40.770Z,10.80
2019-04-28T16:35:06.621Z,10.98
2019-04-28T16:37:38.834Z,10.98
2019-04-28T16:40:00.243Z,10.94
2019-04-28T16:42:46.553Z,10.77
2019-04-28T16:45:13.451Z,10.84
2019-04-28T16:47:59.164Z,10.40
2019-04-28T16:50:25.025Z,10.40
2019-04-28T16:52:50.887Z,10.57
2019-04-28T16:55:36.640Z,10.70
2019-04-28T16:58:22.369Z,10.52
2019-04-28T17:01:08.128Z,10.53
2019-04-28T17:06:41.208Z,10.55
2019-04-28T17:09:27.228Z,10.48
2019-04-28T17:11:53.216Z,10.48
2019-04-28T17:17:47.270Z,10.49
2019-04-28T17:20:33.005Z,10.44
2019-04-28T17:23:18.768Z,10.30
2019-04-28T17:25:44.662Z,10.30
2019-04-28T17:28:10.533Z,10.49
2019-04-28T17:30:36.377Z,10.15
2019-04-28T17:33:02.239Z,10.33
2019-04-28T17:35:28.242Z,10.26
2019-04-28T17:38:06.013Z,10.11
2019-04-28T17:40:42.295Z,10.00
2019-04-28T17:43:28.020Z,9.89
2019-04-28T17:46:13.762Z,9.77
2019-04-28T17:49:00.290Z,9.88
2019-04-28T17:51:26.386Z,9.88
2019-04-28T17:53:52.251Z,9.64
2019-04-28T17:56:18.231Z,9.64
2019-04-28T17:58:44.273Z,9.77
2019-04-28T18:01:49.889Z,9.53
2019-04-28T18:04:35.738Z,9.60
2019-04-28T18:09:36.594Z,9.61
2019-04-28T18:12:02.570Z,9.48
2019-04-28T18:14:28.432Z,9.54
2019-04-28T18:17:14.176Z,9.46
2019-04-28T18:19:59.991Z,9.55
2019-04-28T18:22:45.750Z,9.31
2019-04-28T18:25:31.523Z,9.18
2019-04-28T18:28:17.227Z,9.14
2019-04-28T18:31:22.860Z,9.26
2019-04-28T18:34:08.586Z,9.26
2019-04-28T18:40:07.708Z,8.98
2019-04-28T18:42:53.465Z,8.98
2019-04-28T18:45:19.535Z,8.93
2019-04-28T18:47:45.435Z,8.86
2019-04-28T18:50:11.515Z,8.86
2019-04-28T18:52:37.483Z,9.02
2019-04-28T18:55:44.983Z,9.02
2019-04-28T18:58:10.982Z,9.01
2019-04-28T19:03:44.117Z,8.72
2019-04-28T19:06:29.967Z,8.55
2019-04-28T19:09:15.731Z,8.55
2019-04-28T19:15:09.449Z,8.28
2019-04-28T19:20:22.727Z,8.12
2019-04-28T19:22:48.573Z,8.18
2019-04-28T19:25:14.542Z,7.87
2019-04-28T19:28:22.044Z,7.72
2019-04-28T19:30:47.908Z,7.61
2019-04-28T19:33:33.696Z,7.51
2019-04-28T19:36:19.455Z,7.38
2019-04-28T19:38:45.315Z,7.38
2019-04-28T19:41:31.098Z,7.27
2019-04-28T19:43:56.950Z,7.27
2019-04-28T19:46:22.824Z,6.84
2019-04-28T19:48:48.724Z,7.01
2019-04-28T19:54:02.129Z,6.74
2019-04-28T19:59:35.293Z,6.92
2019-04-28T20:02:21.434Z,6.89
2019-04-28T20:04:47.294Z,6.89
2019-04-28T20:07:13.209Z,6.64
2019-04-28T20:09:39.089Z,6.44
2019-04-28T20:12:04.968Z,6.72
2019-04-28T20:14:30.825Z,6.89
2019-04-28T20:16:56.663Z,6.78
2019-04-28T20:19:22.552Z,6.73
2019-04-28T20:21:48.386Z,6.92
2019-04-28T20:24:14.235Z,6.97
2019-04-28T20:26:40.124Z,7.02
2019-04-28T20:29:05.970Z,6.98
2019-04-28T20:31:31.849Z,6.78
2019-04-28T20:33:57.729Z,6.70
2019-04-28T20:36:43.473Z,6.46
2019-04-28T20:42:36.544Z,6.40
2019-04-28T20:45:44.013Z,6.40
2019-04-28T20:48:10.224Z,6.42
2019-04-28T20:50:36.064Z,6.42
2019-04-28T20:53:01.952Z,6.27
2019-04-28T20:55:27.836Z,6.35
2019-04-28T20:57:53.792Z,6.57
2019-04-28T21:00:19.780Z,6.66
2019-04-28T21:02:45.855Z,6.66
2019-04-28T21:05:11.816Z,6.70
2019-04-28T21:07:37.669Z,6.69
2019-04-28T21:10:45.143Z,6.87
2019-04-28T21:13:10.990Z,6.83
2019-04-28T21:15:36.936Z,6.73
2019-04-28T21:18:02.863Z,6.72
2019-04-28T21:20:28.825Z,6.71
2019-04-28T21:22:54.662Z,6.72
2019-04-28T21:25:20.515Z,6.33
2019-04-28T21:27:46.358Z,6.01
2019-04-28T21:30:12.307Z,6.09
2019-04-28T21:32:38.141Z,6.05
2019-04-28T21:35:03.990Z,6.18
2019-04-28T21:37:29.829Z,6.14
2019-04-28T21:39:55.655Z,6.26
2019-04-28T21:45:19.037Z,6.18
2019-04-28T21:47:44.895Z,6.28
2019-04-28T21:50:10.807Z,6.24
2019-04-28T21:52:36.682Z,6.38
2019-04-28T21:55:44.172Z,6.27
2019-04-28T21:58:10.953Z,6.35
2019-04-28T22:01:18.456Z,6.48
2019-04-28T22:03:44.304Z,6.26
2019-04-28T22:06:10.255Z,6.09
2019-04-28T22:08:36.085Z,6.26
2019-04-28T22:11:02.283Z,6.28
2019-04-28T22:13:28.159Z,6.27
2019-04-28T22:15:54.101Z,6.33
2019-04-28T22:18:19.952Z,6.29
2019-04-28T22:20:46.188Z,6.08
2019-04-28T22:23:52.030Z,6.13
2019-04-28T22:26:57.838Z,6.01
2019-04-28T22:29:43.561Z,6.04
2019-04-28T22:32:09.435Z,6.04
2019-04-28T22:34:35.290Z,6.01
2019-04-28T22:37:01.118Z,5.99
2019-04-28T22:39:26.996Z,5.93
2019-04-28T22:41:52.835Z,6.00
2019-04-28T22:44:18.673Z,5.90
2019-04-28T22:46:44.512Z,6.11
2019-04-28T22:49:10.674Z,6.02
2019-04-28T22:51:36.530Z,5.97
2019-04-28T22:54:44.012Z,6.09
2019-04-28T22:57:29.746Z,5.63
2019-04-28T23:02:43.058Z,5.83
2019-04-28T23:05:08.979Z,5.83
2019-04-28T23:07:34.928Z,5.82
2019-04-28T23:10:00.766Z,5.79
2019-04-28T23:12:26.591Z,5.89
2019-04-28T23:14:52.445Z,5.77
2019-04-28T23:25:53.570Z,5.33
2019-04-28T23:28:39.301Z,5.48
2019-04-28T23:31:05.257Z,5.48
2019-04-28T23:33:31.116Z,5.40
2019-04-28T23:35:56.935Z,5.36
2019-04-28T23:38:22.811Z,5.61
2019-04-28T23:43:55.883Z,5.68
2019-04-28T23:49:29.093Z,5.56
2019-04-28T23:52:36.574Z,5.56
2019-04-28T23:55:44.059Z,5.42
2019-04-28T23:58:09.903Z,5.47
